Time;durP1;ratioP1;P1;durP2;ratioP2;P2;SDS_P1;SDS_P2;PMS_P1;PMS_P2;Temp;Humidity;BMP_temperature;BMP_pressure;BME280_temperature;BME280_humidity;BME280_pressure;Samples;Min_cycle;Max_cycle;Signal;HPM_P1;HPM_P2
2022/12/23 15:03:10;;;;;;;19.33;11.55;;;9.30;95.50;;;;;;5111036;27;20113;-60
2022/12/23 15:05:38;;;;;;;21.77;11.82;;;9.30;95.50;;;;;;5109327;28;20114;-59
2022/12/23 15:08:37;;;;;;;24.30;11.32;;;9.40;95.50;;;;;;5109370;28;20468;-61
2022/12/23 15:11:06;;;;;;;22.15;10.32;;;9.40;95.60;;;;;;5109340;28;20036;-60
2022/12/23 15:13:32;;;;;;;22.08;11.05;;;9.40;95.60;;;;;;5110522;28;20023;-59
2022/12/23 15:15:58;;;;;;;24.27;11.85;;;9.60;95.70;;;;;;5110224;28;20024;-59
2022/12/23 15:18:24;;;;;;;22.35;11.10;;;9.60;95.60;;;;;;5110169;28;20075;-61
2022/12/23 15:21:00;;;;;;;25.52;11.48;;;9.50;95.60;;;;;;5110197;28;20020;-59
2022/12/23 15:23:26;;;;;;;23.00;10.23;;;9.60;95.50;;;;;;5110524;28;20024;-60
2022/12/23 15:25:57;;;;;;;27.73;12.32;;;9.50;95.50;;;;;;5110321;28;20020;-57
2022/12/23 15:28:37;;;;;;;23.17;12.48;;;9.50;95.30;;;;;;5109050;28;20058;-62
2022/12/23 15:31:04;;;;;;;21.42;10.88;;;9.40;95.30;;;;;;5110505;28;20167;-61
2022/12/23 15:33:34;;;;;;;21.65;11.45;;;9.40;95.30;;;;;;5108765;28;20430;-61
2022/12/23 15:36:04;;;;;;;21.50;12.10;;;9.50;95.40;;;;;;5109326;28;20472;-56
2022/12/23 15:38:35;;;;;;;24.60;13.50;;;9.50;95.30;;;;;;5110425;28;20065;-58
2022/12/23 15:41:14;;;;;;;;;;;9.50;95.30;;;;;;5110889;28;20081;-56
2022/12/23 15:43:40;;;;;;;31.25;13.98;;;9.50;95.30;;;;;;5110011;28;19915;-59
2022/12/23 15:46:15;;;;;;;27.67;13.52;;;9.50;95.30;;;;;;5110240;28;20035;-58
2022/12/23 15:48:41;;;;;;;30.05;12.65;;;9.50;95.30;;;;;;5110260;28;20016;-59
2022/12/23 15:51:15;;;;;;;27.23;14.70;;;9.40;95.20;;;;;;5109980;28;20050;-60
2022/12/23 15:53:44;;;;;;;28.15;13.18;;;9.50;95.40;;;;;;5110020;28;20074;-57
2022/12/23 15:56:22;;;;;;;26.38;13.98;;;9.50;95.40;;;;;;5109677;28;20020;-59
2022/12/23 15:58:48;;;;;;;30.25;13.45;;;9.50;95.40;;;;;;5109681;28;20426;-60
2022/12/23 16:01:16;;;;;;;27.02;13.10;;;9.60;95.50;;;;;;5109423;28;20048;-59
2022/12/23 16:03:48;;;;;;;27.83;14.27;;;9.50;95.40;;;;;;5109492;28;20038;-59
2022/12/23 16:06:25;;;;;;;28.58;14.00;;;9.50;95.40;;;;;;5109458;28;20065;-60
2022/12/23 16:09:22;;;;;;;26.83;15.15;;;9.60;95.50;;;;;;5108322;28;20035;-59
2022/12/23 16:12:14;;;;;;;23.95;12.57;;;9.60;95.40;;;;;;5109510;28;20036;-59
2022/12/23 16:14:41;;;;;;;17.63;10.38;;;9.70;95.50;;;;;;5095621;28;20039;-57
2022/12/23 16:17:06;;;;;;;17.40;10.63;;;9.70;95.50;;;;;;5096563;28;20028;-57
2022/12/23 16:19:45;;;;;;;21.52;11.25;;;9.70;95.40;;;;;;5096121;28;20032;-60
2022/12/23 16:22:27;;;;;;;18.73;10.70;;;9.80;95.50;;;;;;5098226;28;20039;-57
2022/12/23 16:25:02;;;;;;;14.48;10.00;;;9.80;95.50;;;;;;5095811;28;20020;-56
2022/12/23 16:27:36;;;;;;;18.60;11.40;;;9.80;95.50;;;;;;5096047;28;20023;-57
2022/12/23 16:30:28;;;;;;;16.48;10.13;;;9.80;95.60;;;;;;5096380;28;20061;-58
2022/12/23 16:32:56;;;;;;;18.00;9.77;;;9.80;95.60;;;;;;5095114;28;20411;-56
2022/12/23 16:35:27;;;;;;;19.17;11.60;;;10.00;95.80;;;;;;5095446;28;20077;-57
2022/12/23 16:38:15;;;;;;;20.65;14.30;;;10.10;95.80;;;;;;5095523;28;20020;-57
2022/12/23 16:40:43;;;;;;;19.90;10.73;;;10.10;95.70;;;;;;5095213;28;20123;-59
2022/12/23 16:43:09;;;;;;;20.35;12.30;;;10.20;95.70;;;;;;5095344;28;20060;-57
2022/12/23 16:45:35;;;;;;;18.92;12.32;;;10.30;95.80;;;;;;5095160;28;20435;-57
2022/12/23 16:48:07;;;;;;;17.05;11.70;;;10.40;95.70;;;;;;5095502;28;20028;-56
2022/12/23 16:50:33;;;;;;;21.42;13.52;;;10.40;95.70;;;;;;5094277;28;20020;-57
2022/12/23 16:52:59;;;;;;;19.88;12.75;;;10.50;95.80;;;;;;5095155;28;20421;-58
2022/12/23 16:55:25;;;;;;;23.10;13.50;;;10.60;95.70;;;;;;5095500;28;20031;-55
2022/12/23 16:57:51;;;;;;;19.52;13.48;;;10.70;95.70;;;;;;5095095;28;20476;-55
2022/12/23 17:00:18;;;;;;;18.95;13.52;;;10.80;95.70;;;;;;5095457;28;20059;-57
2022/12/23 17:02:46;;;;;;;21.58;13.82;;;10.80;95.70;;;;;;5096302;28;20097;-57
2022/12/23 17:05:20;;;;;;;18.50;12.63;;;10.80;95.60;;;;;;5096673;28;20073;-56
2022/12/23 17:07:46;;;;;;;17.48;11.13;;;11.00;95.50;;;;;;5094829;28;20051;-59
2022/12/23 17:10:16;;;;;;;27.55;11.07;;;11.10;95.20;;;;;;5094840;28;20107;-56
2022/12/23 17:12:43;;;;;;;21.35;13.13;;;11.20;95.00;;;;;;5093417;28;20032;-56
2022/12/23 17:15:20;;;;;;;18.60;10.18;;;11.20;94.80;;;;;;5094902;28;20085;-57
2022/12/23 17:17:47;;;;;;;15.20;11.20;;;11.30;94.60;;;;;;5094614;28;20020;-59
2022/12/23 17:20:13;;;;;;;15.15;9.85;;;11.30;94.40;;;;;;5094455;28;20020;-57
2022/12/23 17:22:41;;;;;;;15.88;11.93;;;11.40;94.40;;;;;;5094971;28;20086;-57
2022/12/23 17:25:13;;;;;;;22.13;13.60;;;11.40;94.60;;;;;;5093668;28;20038;-57
2022/12/23 17:27:39;;;;;;;18.25;11.43;;;11.40;94.70;;;;;;5094685;28;20104;-58
2022/12/23 17:30:06;;;;;;;19.27;13.23;;;11.40;94.80;;;;;;5094398;28;20016;-58
2022/12/23 17:32:32;;;;;;;19.90;12.32;;;11.30;94.90;;;;;;5094696;28;20032;-56
2022/12/23 17:35:00;;;;;;;17.13;11.35;;;11.30;95.10;;;;;;5095224;28;20058;-58
2022/12/23 17:37:27;;;;;;;18.00;12.32;;;11.30;95.30;;;;;;5094915;28;20032;-60
2022/12/23 17:39:53;;;;;;;17.95;11.38;;;11.30;95.50;;;;;;5094300;28;20546;-60
2022/12/23 17:42:21;;;;;;;20.60;12.90;;;11.30;95.50;;;;;;5094423;28;20114;-59
2022/12/23 17:44:47;;;;;;;20.60;13.82;;;11.30;95.60;;;;;;5092902;28;20028;-61
2022/12/23 17:47:18;;;;;;;21.08;14.63;;;11.40;95.50;;;;;;5094184;28;20020;-60
2022/12/23 17:49:44;;;;;;;16.77;12.15;;;11.40;95.50;;;;;;5092657;28;20020;-59
2022/12/23 17:52:21;;;;;;;21.73;11.95;;;11.40;95.30;;;;;;5094190;28;20031;-59
2022/12/23 17:54:49;;;;;;;20.13;12.32;;;11.50;94.80;;;;;;5094402;28;20471;-59
2022/12/23 17:57:24;;;;;;;16.63;11.93;;;11.50;94.60;;;;;;5092740;28;20032;-59
2022/12/23 17:59:51;;;;;;;18.65;10.63;;;11.50;94.60;;;;;;5094037;28;20429;-59
2022/12/23 18:02:26;;;;;;;12.07;9.48;;;11.60;94.40;;;;;;5093741;28;20048;-59
2022/12/23 18:04:52;;;;;;;15.18;10.93;;;11.60;94.10;;;;;;5094370;28;20017;-58
2022/12/23 18:07:18;;;;;;;15.07;9.73;;;11.60;94.00;;;;;;5093727;28;20074;-58
2022/12/23 18:09:45;;;;;;;12.38;9.10;;;11.60;94.10;;;;;;5092606;28;20028;-60
2022/12/23 18:12:22;;;;;;;14.65;8.32;;;11.60;94.00;;;;;;5094069;28;20099;-57
2022/12/23 18:14:48;;;;;;;11.68;6.75;;;11.50;93.90;;;;;;5094058;28;20051;-58
2022/12/23 18:17:14;;;;;;;13.68;6.65;;;11.50;94.00;;;;;;5093883;28;20083;-59
2022/12/23 18:19:40;;;;;;;10.02;6.30;;;11.50;94.00;;;;;;5092761;28;20541;-58
2022/12/23 18:22:11;;;;;;;8.57;5.53;;;11.40;94.00;;;;;;5092089;28;20112;-60
2022/12/23 18:24:37;;;;;;;9.07;5.22;;;11.40;94.10;;;;;;5094008;28;20024;-59
2022/12/23 18:27:15;;;;;;;12.05;4.93;;;11.40;94.10;;;;;;5092172;28;20020;-59
2022/12/23 18:29:41;;;;;;;16.92;8.88;;;11.40;94.20;;;;;;5093384;28;20108;-59
2022/12/23 18:32:19;;;;;;;17.23;9.45;;;11.40;94.20;;;;;;5092661;28;20064;-58
2022/12/23 18:34:45;;;;;;;12.68;8.68;;;11.40;94.30;;;;;;5093836;28;20024;-59
2022/12/23 18:37:10;;;;;;;13.43;8.98;;;11.40;94.20;;;;;;5093185;28;20415;-59
2022/12/23 18:39:36;;;;;;;17.85;10.57;;;11.50;94.20;;;;;;5093470;28;20055;-58
2022/12/23 18:42:02;;;;;;;20.05;8.52;;;11.60;94.00;;;;;;5093497;28;20032;-58
2022/12/23 18:44:27;;;;;;;20.80;10.13;;;11.60;94.00;;;;;;5092574;28;20040;-61
2022/12/23 18:46:53;;;;;;;25.15;9.68;;;11.60;94.10;;;;;;5093244;28;20020;-59
2022/12/23 18:49:18;;;;;;;12.80;7.93;;;11.60;94.00;;;;;;5093241;28;20081;-59
2022/12/23 18:51:44;;;;;;;24.98;10.93;;;11.60;94.00;;;;;;5093036;28;20028;-60
2022/12/23 18:54:16;;;;;;;20.80;8.73;;;11.60;94.10;;;;;;5093116;28;20050;-59
2022/12/23 18:56:42;;;;;;;22.60;9.90;;;11.60;93.80;;;;;;5092949;28;20153;-56
2022/12/23 18:59:16;;;;;;;20.80;7.82;;;11.60;93.20;;;;;;5093098;28;20035;-59
2022/12/23 19:01:41;;;;;;;12.25;5.15;;;11.60;93.10;;;;;;5092802;28;20111;-58
2022/12/23 19:04:07;;;;;;;14.05;5.68;;;11.70;92.10;;;;;;5093494;28;20133;-56
2022/12/23 19:06:33;;;;;;;33.35;6.20;;;11.60;92.20;;;;;;5092832;28;20054;-59
2022/12/23 19:08:58;;;;;;;15.73;5.70;;;11.50;92.30;;;;;;5093098;28;20383;-59
2022/12/23 19:11:24;;;;;;;14.77;5.53;;;11.50;92.40;;;;;;5092771;28;20028;-59
2022/12/23 19:13:50;;;;;;;15.00;4.80;;;11.60;92.20;;;;;;5092890;28;20097;-59
2022/12/23 19:16:19;;;;;;;19.98;4.78;;;11.60;92.10;;;;;;5092894;28;20100;-56
2022/12/23 19:18:46;;;;;;;23.85;4.65;;;11.50;92.40;;;;;;5091486;28;20024;-59
2022/12/23 19:21:12;;;;;;;22.58;5.70;;;11.50;92.60;;;;;;5093027;28;20514;-60
2022/12/23 19:23:41;;;;;;;16.83;4.72;;;11.40;92.70;;;;;;5093024;28;20044;-55
2022/12/23 19:26:09;;;;;;;14.93;4.90;;;11.40;92.60;;;;;;5093962;28;20032;-58
2022/12/23 19:28:37;;;;;;;29.05;6.28;;;11.40;92.60;;;;;;5093122;28;20455;-61
2022/12/23 19:31:13;;;;;;;20.13;6.53;;;11.50;92.20;;;;;;5093704;28;20016;-54
2022/12/23 19:33:40;;;;;;;29.08;6.40;;;11.40;92.20;;;;;;5094035;28;20021;-58
2022/12/23 19:36:15;;;;;;;26.13;6.55;;;11.50;92.20;;;;;;5093376;28;20157;-57
2022/12/23 19:38:42;;;;;;;20.20;6.38;;;11.50;92.10;;;;;;5075649;28;20368;-58
2022/12/23 19:41:08;;;;;;;16.83;7.60;;;11.50;92.20;;;;;;5092493;28;20035;-54
2022/12/23 19:43:35;;;;;;;39.10;8.15;;;11.50;91.70;;;;;;5093086;28;20016;-57
2022/12/23 19:46:03;;;;;;;27.30;7.45;;;11.60;91.40;;;;;;5093082;28;20016;-55
2022/12/23 19:48:29;;;;;;;15.68;5.50;;;11.60;91.60;;;;;;5093839;28;20049;-56
2022/12/23 19:51:01;;;;;;;29.02;7.93;;;11.60;91.60;;;;;;5096849;28;20032;-58
2022/12/23 19:53:27;;;;;;;24.27;6.88;;;11.60;91.60;;;;;;5095229;28;20020;-56
2022/12/23 19:56:01;;;;;;;15.00;4.90;;;11.50;91.50;;;;;;5096705;28;20077;-55
2022/12/23 19:58:30;;;;;;;31.77;6.10;;;11.40;91.90;;;;;;5095062;28;20077;-55
2022/12/23 20:01:09;;;;;;;26.27;6.55;;;11.40;92.20;;;;;;5096089;28;20031;-59
2022/12/23 20:03:35;;;;;;;22.85;6.18;;;11.30;92.80;;;;;;5096669;28;20447;-57
2022/12/23 20:06:02;;;;;;;24.02;6.28;;;11.30;93.00;;;;;;5096248;28;20471;-55
2022/12/23 20:08:28;;;;;;;30.17;6.38;;;11.20;93.00;;;;;;5096984;28;20125;-56
2022/12/23 20:11:05;;;;;;;29.42;7.93;;;11.20;93.10;;;;;;5096065;28;20058;-58
2022/12/23 20:13:31;;;;;;;25.90;5.15;;;11.10;93.30;;;;;;5095155;28;20065;-56
2022/12/23 20:15:57;;;;;;;34.45;7.03;;;11.10;93.30;;;;;;5096029;28;20024;-56
2022/12/23 20:18:23;;;;;;;30.48;7.03;;;11.10;93.20;;;;;;5096260;28;20031;-52
2022/12/23 20:20:49;;;;;;;21.10;4.57;;;11.10;93.20;;;;;;5095931;28;20025;-56
2022/12/23 20:23:14;;;;;;;23.17;5.95;;;11.10;93.00;;;;;;5095755;28;20191;-57
2022/12/23 20:25:40;;;;;;;33.05;7.63;;;11.20;92.80;;;;;;5096240;28;20023;-58
2022/12/23 20:28:06;;;;;;;31.73;7.22;;;11.20;92.50;;;;;;5095717;28;20459;-57
2022/12/23 20:30:31;;;;;;;18.58;4.95;;;11.20;92.40;;;;;;5094147;28;20024;-52
2022/12/23 20:32:57;;;;;;;28.30;6.63;;;11.20;92.10;;;;;;5095975;28;20380;-57
2022/12/23 20:35:24;;;;;;;36.13;6.20;;;11.30;91.90;;;;;;5094293;28;20106;-57
2022/12/23 20:37:50;;;;;;;22.73;6.15;;;11.30;91.80;;;;;;5094252;28;20031;-63
2022/12/23 20:40:18;;;;;;;33.25;5.50;;;11.30;92.10;;;;;;5095827;28;20107;-61
2022/12/23 20:42:44;;;;;;;22.95;5.55;;;11.30;91.70;;;;;;5094184;28;20028;-60
2022/12/23 20:45:10;;;;;;;20.10;4.72;;;11.30;91.60;;;;;;5095263;28;20103;-61
2022/12/23 20:47:36;;;;;;;25.10;4.68;;;11.30;91.60;;;;;;5095676;28;20024;-60
2022/12/23 20:50:03;;;;;;;26.30;8.07;;;11.30;91.60;;;;;;5095702;28;20051;-61
2022/12/23 20:52:29;;;;;;;25.45;5.18;;;11.30;91.40;;;;;;5095655;28;20035;-59
2022/12/23 20:54:55;;;;;;;19.73;4.85;;;11.30;91.20;;;;;;5094366;28;20115;-61
2022/12/23 20:57:21;;;;;;;30.38;5.93;;;11.30;91.20;;;;;;5095096;28;20093;-61
2022/12/23 20:59:47;;;;;;;30.30;7.10;;;11.30;91.00;;;;;;5095047;28;20452;-61
